createdAt,value
2019-01-15T00:02:05.253Z,6.13
2019-01-15T00:04:34.700Z,6.19
2019-01-15T00:07:04.820Z,6.20
2019-01-15T00:09:34.331Z,6.26
2019-01-15T00:12:07.746Z,6.28
2019-01-15T00:14:34.846Z,6.29
2019-01-15T00:17:04.302Z,6.18
2019-01-15T00:19:33.688Z,6.24
2019-01-15T00:22:03.347Z,6.27
2019-01-15T00:24:33.456Z,6.30
2019-01-15T00:27:03.477Z,6.33
2019-01-15T00:29:33.365Z,6.26
2019-01-15T00:32:03.404Z,6.28
2019-01-15T00:34:33.440Z,6.20
2019-01-15T00:37:03.366Z,6.27
2019-01-15T00:39:33.460Z,6.38
2019-01-15T00:42:03.738Z,6.41
2019-01-15T00:44:35.095Z,6.35
2019-01-15T00:47:04.912Z,6.38
2019-01-15T00:49:34.354Z,6.33
2019-01-15T00:52:03.900Z,6.41
2019-01-15T00:54:33.581Z,6.47
2019-01-15T00:57:03.439Z,6.48
2019-01-15T00:59:33.483Z,6.43
2019-01-15T01:02:03.500Z,6.41
2019-01-15T01:04:33.459Z,6.31
2019-01-15T01:07:03.838Z,6.23
2019-01-15T01:09:33.550Z,6.31
2019-01-15T01:12:03.471Z,6.32
2019-01-15T01:14:33.447Z,6.33
2019-01-15T01:17:03.677Z,6.34
2019-01-15T01:19:33.511Z,6.43
2019-01-15T01:22:03.516Z,6.48
2019-01-15T01:24:33.539Z,6.44
2019-01-15T01:27:03.462Z,6.37
2019-01-15T01:29:33.513Z,6.21
2019-01-15T01:32:03.679Z,6.24
2019-01-15T01:34:33.501Z,6.22
2019-01-15T01:37:03.614Z,6.23
2019-01-15T01:39:33.570Z,6.31
2019-01-15T01:42:03.530Z,6.36
2019-01-15T01:44:33.651Z,6.34
2019-01-15T01:47:03.775Z,6.17
2019-01-15T01:49:33.593Z,6.18
2019-01-15T01:52:03.584Z,6.26
2019-01-15T01:54:33.705Z,6.18
2019-01-15T01:57:03.666Z,6.19
2019-01-15T01:59:33.549Z,6.21
2019-01-15T02:02:03.729Z,6.15
2019-01-15T02:04:33.562Z,6.21
2019-01-15T02:07:03.560Z,6.12
2019-01-15T02:09:33.609Z,6.12
2019-01-15T02:12:03.545Z,6.08
2019-01-15T02:14:33.695Z,6.05
2019-01-15T02:17:03.724Z,6.10
2019-01-15T02:19:33.591Z,5.97
2019-01-15T02:22:03.584Z,5.92
2019-01-15T02:24:33.836Z,5.89
2019-01-15T02:27:05.603Z,5.88
2019-01-15T02:29:35.013Z,5.71
2019-01-15T02:32:04.503Z,5.83
2019-01-15T02:34:33.867Z,5.83
2019-01-15T02:37:03.591Z,5.85
2019-01-15T02:39:33.756Z,5.80
2019-01-15T02:42:03.625Z,5.77
2019-01-15T02:44:33.707Z,5.72
2019-01-15T02:47:04.162Z,5.77
2019-01-15T02:49:33.660Z,5.78
2019-01-15T02:52:03.652Z,5.85
2019-01-15T02:54:33.774Z,5.83
2019-01-15T02:57:03.631Z,5.88
2019-01-15T02:59:33.677Z,5.95
2019-01-15T03:02:03.828Z,5.99
2019-01-15T03:04:33.661Z,5.94
2019-01-15T03:07:03.680Z,5.99
2019-01-15T03:09:33.798Z,6.05
2019-01-15T03:12:03.761Z,5.99
2019-01-15T03:14:33.684Z,6.02
2019-01-15T03:17:03.837Z,5.95
2019-01-15T03:19:33.719Z,6.00
2019-01-15T03:22:03.714Z,6.06
2019-01-15T03:24:33.866Z,6.08
2019-01-15T03:27:03.818Z,6.12
2019-01-15T03:29:33.734Z,6.03
2019-01-15T03:32:03.860Z,5.99
2019-01-15T03:34:33.725Z,5.92
2019-01-15T03:37:03.746Z,5.95
2019-01-15T03:39:33.960Z,5.81
2019-01-15T03:42:03.901Z,5.80
2019-01-15T03:44:33.789Z,5.78
2019-01-15T03:47:03.842Z,5.87
2019-01-15T03:49:34.200Z,5.81
2019-01-15T03:52:03.779Z,5.76
2019-01-15T03:54:33.865Z,5.82
2019-01-15T03:57:03.786Z,5.78
2019-01-15T03:59:33.771Z,5.75
2019-01-15T04:02:03.965Z,5.87
2019-01-15T04:04:33.811Z,5.93
2019-01-15T04:07:04.277Z,5.93
2019-01-15T04:09:34.175Z,5.87
2019-01-15T04:12:03.924Z,5.84
2019-01-15T04:14:33.903Z,5.76
2019-01-15T04:17:03.877Z,5.77
2019-01-15T04:19:33.897Z,5.63
2019-01-15T04:22:03.820Z,5.56
2019-01-15T04:24:33.961Z,5.55
2019-01-15T04:27:03.846Z,5.54
2019-01-15T04:29:33.840Z,5.45
2019-01-15T04:32:04.165Z,5.53
2019-01-15T04:34:33.863Z,5.55
2019-01-15T04:37:03.994Z,5.53
2019-01-15T04:39:34.047Z,5.50
2019-01-15T04:42:03.850Z,5.61
2019-01-15T04:44:33.861Z,5.63
2019-01-15T04:47:03.938Z,5.67
2019-01-15T04:49:33.891Z,5.67
2019-01-15T04:52:04.284Z,5.81
2019-01-15T04:54:34.168Z,5.89
2019-01-15T04:57:04.839Z,5.80
2019-01-15T04:59:34.803Z,5.88
2019-01-15T05:02:04.574Z,5.77
2019-01-15T05:04:34.102Z,5.80
2019-01-15T05:07:04.170Z,5.73
2019-01-15T05:09:34.201Z,5.71
2019-01-15T05:12:04.311Z,5.62
2019-01-15T05:14:33.982Z,5.70
2019-01-15T05:17:04.085Z,5.66
2019-01-15T05:19:33.973Z,5.61
2019-01-15T05:22:04.433Z,5.59
2019-01-15T05:24:34.224Z,5.57
2019-01-15T05:27:03.963Z,5.45
2019-01-15T05:29:35.754Z,5.52
2019-01-15T05:32:05.559Z,5.55
2019-01-15T05:34:35.421Z,5.44
2019-01-15T05:37:05.180Z,5.54
2019-01-15T05:39:34.827Z,5.47
2019-01-15T05:42:04.218Z,5.53
2019-01-15T05:44:34.356Z,5.55
2019-01-15T05:47:04.220Z,5.55
2019-01-15T05:49:34.139Z,5.64
2019-01-15T05:52:04.046Z,5.64
2019-01-15T05:54:34.168Z,5.66
2019-01-15T05:57:04.256Z,5.65
2019-01-15T05:59:34.158Z,5.51
2019-01-15T06:02:04.252Z,5.55
2019-01-15T06:04:34.008Z,5.38
2019-01-15T06:07:04.049Z,5.38
2019-01-15T06:09:37.018Z,5.45
2019-01-15T06:12:08.463Z,5.45
2019-01-15T06:14:37.893Z,5.37
2019-01-15T06:17:07.757Z,5.38
2019-01-15T06:19:37.179Z,5.44
2019-01-15T06:22:06.669Z,5.26
2019-01-15T06:24:36.107Z,5.34
2019-01-15T06:27:05.486Z,5.45
2019-01-15T06:29:35.095Z,5.41
2019-01-15T06:32:04.907Z,5.46
2019-01-15T06:34:34.459Z,5.43
2019-01-15T06:37:04.042Z,5.37
2019-01-15T06:39:34.272Z,5.41
2019-01-15T06:42:04.487Z,5.53
2019-01-15T06:44:34.324Z,5.60
2019-01-15T06:47:04.345Z,5.57
2019-01-15T06:49:34.085Z,5.56
2019-01-15T06:52:04.358Z,5.67
2019-01-15T06:54:34.315Z,5.64
2019-01-15T06:57:04.086Z,5.65
2019-01-15T06:59:36.645Z,5.62
2019-01-15T07:02:06.504Z,5.75
2019-01-15T07:04:35.993Z,5.85
2019-01-15T07:07:05.619Z,5.87
2019-01-15T07:09:35.107Z,5.95
2019-01-15T07:12:04.581Z,5.99
2019-01-15T07:14:34.499Z,6.06
2019-01-15T07:17:04.184Z,6.08
2019-01-15T07:19:34.335Z,6.16
2019-01-15T07:22:04.311Z,6.26
2019-01-15T07:24:34.321Z,6.19
2019-01-15T07:27:04.163Z,6.37
2019-01-15T07:29:34.182Z,6.44
2019-01-15T07:32:04.522Z,6.46
2019-01-15T07:34:34.231Z,6.40
2019-01-15T07:37:04.178Z,6.30
2019-01-15T07:39:34.338Z,6.40
2019-01-15T07:42:04.182Z,6.45
2019-01-15T07:44:34.193Z,6.52
2019-01-15T07:47:04.471Z,6.54
2019-01-15T07:49:34.188Z,6.55
2019-01-15T07:52:04.193Z,6.57
2019-01-15T07:54:34.277Z,6.66
2019-01-15T07:57:04.210Z,6.69
2019-01-15T07:59:34.229Z,6.63
2019-01-15T08:02:04.788Z,6.66
2019-01-15T08:04:34.233Z,6.79
2019-01-15T08:07:04.337Z,6.77
2019-01-15T08:09:34.527Z,6.76
2019-01-15T08:12:04.261Z,6.71
2019-01-15T08:14:34.242Z,6.68
2019-01-15T08:17:04.332Z,6.76
2019-01-15T08:19:34.246Z,6.87
2019-01-15T08:22:04.481Z,6.93
2019-01-15T08:24:34.554Z,6.97
2019-01-15T08:27:04.351Z,6.84
2019-01-15T08:29:34.394Z,6.89
2019-01-15T08:32:04.644Z,6.86
2019-01-15T08:34:34.353Z,6.91
2019-01-15T08:37:04.377Z,6.97
2019-01-15T08:39:34.435Z,6.91
2019-01-15T08:42:04.452Z,6.94
2019-01-15T08:44:34.392Z,6.96
2019-01-15T08:47:04.553Z,7.07
2019-01-15T08:49:34.387Z,7.07
2019-01-15T08:52:04.491Z,7.00
2019-01-15T08:54:34.524Z,7.13
2019-01-15T08:57:04.423Z,7.09
2019-01-15T08:59:34.375Z,7.18
2019-01-15T09:02:04.639Z,7.28
2019-01-15T09:04:34.407Z,7.28
2019-01-15T09:07:04.687Z,7.31
2019-01-15T09:09:34.621Z,7.28
2019-01-15T09:12:04.708Z,7.21
2019-01-15T09:14:34.449Z,7.21
2019-01-15T09:17:10.799Z,7.19
2019-01-15T09:19:35.770Z,7.11
2019-01-15T09:22:05.250Z,7.12
2019-01-15T09:24:34.720Z,7.30
2019-01-15T09:27:04.838Z,7.11
2019-01-15T09:29:34.486Z,7.23
2019-01-15T09:32:04.796Z,7.28
2019-01-15T09:34:34.452Z,7.21
2019-01-15T09:37:06.126Z,7.26
2019-01-15T09:39:36.081Z,7.33
2019-01-15T09:42:05.484Z,7.47
2019-01-15T09:44:36.092Z,7.34
2019-01-15T09:47:05.720Z,7.25
2019-01-15T09:49:37.433Z,7.30
2019-01-15T09:52:12.962Z,7.37
2019-01-15T09:54:38.273Z,7.51
2019-01-15T09:57:07.658Z,7.51
2019-01-15T09:59:37.056Z,7.50
2019-01-15T10:02:06.710Z,7.43
2019-01-15T10:04:36.083Z,7.46
2019-01-15T10:07:05.474Z,7.48
2019-01-15T10:09:35.231Z,7.55
2019-01-15T10:12:04.794Z,7.62
2019-01-15T10:14:41.011Z,7.66
2019-01-15T10:17:05.966Z,7.82
2019-01-15T10:19:35.337Z,7.83
2019-01-15T10:22:05.108Z,7.70
2019-01-15T10:24:34.762Z,7.83
2019-01-15T10:27:04.690Z,7.81
2019-01-15T10:29:34.719Z,7.75
2019-01-15T10:32:47.028Z,7.79
2019-01-15T10:35:22.808Z,7.88
2019-01-15T10:37:52.217Z,8.00
2019-01-15T10:40:21.642Z,8.01
2019-01-15T10:42:51.032Z,8.10
2019-01-15T10:45:20.443Z,8.10
2019-01-15T10:47:49.922Z,7.95
2019-01-15T10:50:19.356Z,7.97
2019-01-15T10:52:48.763Z,8.03
2019-01-15T10:55:18.327Z,8.03
2019-01-15T10:57:47.771Z,8.10
2019-01-15T11:00:17.213Z,8.12
2019-01-15T11:02:46.840Z,8.17
2019-01-15T11:05:16.309Z,8.18
2019-01-15T11:07:45.697Z,8.15
2019-01-15T11:10:17.212Z,8.06
2019-01-15T11:12:47.113Z,7.94
2019-01-15T11:15:16.590Z,7.98
2019-01-15T11:17:46.119Z,8.08
2019-01-15T11:20:16.327Z,8.07
2019-01-15T11:22:45.718Z,8.04
2019-01-15T11:25:15.668Z,8.04
2019-01-15T11:27:45.029Z,8.05
2019-01-15T11:30:14.758Z,7.99
2019-01-15T11:32:44.441Z,7.97
2019-01-15T11:35:14.266Z,7.96
2019-01-15T11:37:43.625Z,8.12
2019-01-15T11:40:13.543Z,8.22
2019-01-15T11:42:42.975Z,8.04
2019-01-15T11:45:13.372Z,8.09
2019-01-15T11:47:42.942Z,8.21
2019-01-15T11:50:15.157Z,8.26
2019-01-15T11:52:44.579Z,8.22
2019-01-15T11:55:14.377Z,8.25
2019-01-15T11:57:43.763Z,8.26
2019-01-15T12:00:19.000Z,8.29
2019-01-15T12:02:54.105Z,8.21
2019-01-15T12:05:48.296Z,8.25
2019-01-15T12:08:36.717Z,8.23
2019-01-15T12:11:25.116Z,8.30
2019-01-15T12:14:28.441Z,8.31
2019-01-15T12:17:19.653Z,8.27
2019-01-15T12:20:14.032Z,8.22
2019-01-15T12:23:07.036Z,8.23
2019-01-15T12:25:46.402Z,8.34
2019-01-15T12:28:40.879Z,8.37
2019-01-15T12:31:33.895Z,8.33
2019-01-15T12:34:21.788Z,8.33
2019-01-15T12:36:59.319Z,8.30
2019-01-15T12:39:46.374Z,8.41
2019-01-15T12:42:26.713Z,8.48
2019-01-15T12:45:18.369Z,8.47
2019-01-15T12:48:11.381Z,8.46
2019-01-15T12:50:55.050Z,8.56
2019-01-15T12:53:50.533Z,8.50
2019-01-15T12:56:37.501Z,8.55
2019-01-15T12:59:34.839Z,8.47
2019-01-15T13:02:25.390Z,8.51
2019-01-15T13:05:04.816Z,8.48
2019-01-15T13:07:52.422Z,8.49
2019-01-15T13:10:43.726Z,8.40
2019-01-15T13:13:47.218Z,8.40
2019-01-15T13:16:38.535Z,8.38
2019-01-15T13:19:38.345Z,8.47
2019-01-15T13:22:25.131Z,8.50
2019-01-15T13:25:25.275Z,8.54
2019-01-15T13:28:07.707Z,8.55
2019-01-15T13:30:56.034Z,8.47
2019-01-15T13:33:43.247Z,8.47
2019-01-15T13:36:28.522Z,8.57
2019-01-15T13:39:15.603Z,8.61
2019-01-15T13:42:06.741Z,8.60
2019-01-15T13:44:55.297Z,8.54
2019-01-15T13:47:34.649Z,8.56
2019-01-15T13:50:37.036Z,8.59
2019-01-15T13:53:33.496Z,8.60
2019-01-15T13:56:21.366Z,8.57
2019-01-15T13:59:08.133Z,8.59
2019-01-15T14:02:08.524Z,8.63
2019-01-15T14:05:06.825Z,8.63
2019-01-15T14:07:55.154Z,8.68
2019-01-15T14:10:42.385Z,8.76
2019-01-15T14:13:29.570Z,8.77
2019-01-15T14:16:26.633Z,8.71
2019-01-15T14:19:08.971Z,8.67
2019-01-15T14:22:03.567Z,8.61
2019-01-15T14:24:58.321Z,8.66
2019-01-15T14:27:45.086Z,8.75
2019-01-15T14:30:35.115Z,8.78
2019-01-15T14:33:33.274Z,8.65
2019-01-15T14:36:24.636Z,8.70
2019-01-15T14:39:11.680Z,8.78
2019-01-15T14:41:58.276Z,8.79
2019-01-15T14:44:44.996Z,8.83
2019-01-15T14:47:31.996Z,8.87
2019-01-15T14:50:29.181Z,8.83
2019-01-15T14:53:17.863Z,8.90
2019-01-15T14:56:12.014Z,8.85
2019-01-15T14:58:58.941Z,8.80
2019-01-15T15:01:50.317Z,8.84
2019-01-15T15:04:39.661Z,8.88
2019-01-15T15:07:26.424Z,8.88
2019-01-15T15:10:23.728Z,8.87
2019-01-15T15:13:18.259Z,8.86
2019-01-15T15:16:05.473Z,8.83
2019-01-15T15:19:02.999Z,8.80
2019-01-15T15:21:44.646Z,8.80
2019-01-15T15:24:30.401Z,8.87
2019-01-15T15:27:24.354Z,8.81
2019-01-15T15:30:12.640Z,8.72
2019-01-15T15:32:55.910Z,8.73
2019-01-15T15:35:42.961Z,8.67
2019-01-15T15:38:25.782Z,8.72
2019-01-15T15:41:14.867Z,8.74
2019-01-15T15:44:01.339Z,8.75
2019-01-15T15:47:04.645Z,8.84
2019-01-15T15:49:58.936Z,8.80
2019-01-15T15:52:56.427Z,8.78
2019-01-15T15:55:44.845Z,8.76
2019-01-15T15:58:31.679Z,8.80
2019-01-15T16:01:23.150Z,8.84
2019-01-15T16:04:10.153Z,8.83
2019-01-15T16:07:04.653Z,8.80
2019-01-15T16:09:58.949Z,8.92
2019-01-15T16:12:46.042Z,8.90
2019-01-15T16:15:49.538Z,8.90
2019-01-15T16:18:43.615Z,8.85
2019-01-15T16:21:34.667Z,8.92
2019-01-15T16:24:28.895Z,8.90
2019-01-15T16:27:15.942Z,8.86
2019-01-15T16:29:58.770Z,8.90
2019-01-15T16:32:46.105Z,8.88
2019-01-15T16:35:28.578Z,8.94
2019-01-15T16:38:19.610Z,8.93
2019-01-15T16:40:59.825Z,8.87
2019-01-15T16:43:54.989Z,8.88
2019-01-15T16:46:39.151Z,8.97
2019-01-15T16:49:25.918Z,8.99
2019-01-15T16:52:07.419Z,8.93
2019-01-15T16:55:03.636Z,8.84
2019-01-15T16:57:58.637Z,8.91
2019-01-15T17:00:46.929Z,8.96
2019-01-15T17:03:38.493Z,9.05
2019-01-15T17:06:25.247Z,9.00
2019-01-15T17:09:12.386Z,9.11
2019-01-15T17:12:12.553Z,9.11
2019-01-15T17:15:06.974Z,9.13
2019-01-15T17:17:49.410Z,9.13
2019-01-15T17:20:40.952Z,9.11
2019-01-15T17:23:28.016Z,9.12
2019-01-15T17:26:15.314Z,9.02
2019-01-15T17:29:16.278Z,9.00
2019-01-15T17:32:19.522Z,8.98
2019-01-15T17:35:10.758Z,8.93
2019-01-15T17:38:02.293Z,9.00
2019-01-15T17:40:45.515Z,9.05
2019-01-15T17:43:32.544Z,9.11
2019-01-15T17:46:24.427Z,9.11
2019-01-15T17:49:22.092Z,9.12
2019-01-15T17:52:08.768Z,9.17
2019-01-15T17:54:56.502Z,9.28
2019-01-15T17:57:51.155Z,9.30
2019-01-15T18:00:38.418Z,9.33
2019-01-15T18:03:19.387Z,9.25
2019-01-15T18:06:06.638Z,9.17
2019-01-15T18:08:57.767Z,9.18
2019-01-15T18:11:44.701Z,9.28
2019-01-15T18:14:28.690Z,9.27
2019-01-15T18:17:18.765Z,9.35
2019-01-15T18:20:21.975Z,9.36
2019-01-15T18:23:16.187Z,9.37
2019-01-15T18:26:07.513Z,9.46
2019-01-15T18:29:05.752Z,9.43
2019-01-15T18:32:00.429Z,9.39
2019-01-15T18:34:55.070Z,9.43
2019-01-15T18:37:55.465Z,9.50
2019-01-15T18:40:50.061Z,9.46
2019-01-15T18:43:44.484Z,9.40
2019-01-15T18:46:28.215Z,9.43
2019-01-15T18:49:16.609Z,9.38
2019-01-15T18:52:03.771Z,9.46
2019-01-15T18:54:50.718Z,9.43
2019-01-15T18:57:37.910Z,9.37
2019-01-15T19:00:32.691Z,9.43
2019-01-15T19:03:24.998Z,9.51
2019-01-15T19:06:09.912Z,9.37
2019-01-15T19:09:07.141Z,9.38
2019-01-15T19:11:58.237Z,9.43
2019-01-15T19:14:55.565Z,9.47
2019-01-15T19:17:42.449Z,9.49
2019-01-15T19:20:33.837Z,9.54
2019-01-15T19:23:31.324Z,9.42
2019-01-15T19:26:18.097Z,9.51
2019-01-15T19:29:24.417Z,9.46
2019-01-15T19:32:24.617Z,9.55
2019-01-15T19:35:07.641Z,9.58
2019-01-15T19:37:59.674Z,9.61
2019-01-15T19:40:41.344Z,9.57
2019-01-15T19:43:32.565Z,9.51
2019-01-15T19:46:20.869Z,9.53
2019-01-15T19:49:12.264Z,9.51
2019-01-15T19:51:59.178Z,9.57
2019-01-15T19:54:56.581Z,9.45
2019-01-15T19:57:35.609Z,9.53
2019-01-15T20:00:21.221Z,9.41
2019-01-15T20:03:27.753Z,9.39
2019-01-15T20:06:10.532Z,9.41
2019-01-15T20:09:01.857Z,9.47
2019-01-15T20:11:46.102Z,9.50
2019-01-15T20:14:46.238Z,9.46
2019-01-15T20:17:34.934Z,9.52
2019-01-15T20:20:28.139Z,9.52
2019-01-15T20:23:16.616Z,9.51
2019-01-15T20:26:22.983Z,9.44
2019-01-15T20:29:23.316Z,9.42
2019-01-15T20:32:11.517Z,9.38
2019-01-15T20:35:03.103Z,9.39
2019-01-15T20:37:52.220Z,9.34
2019-01-15T20:40:39.821Z,9.26
2019-01-15T20:43:30.954Z,9.29
2019-01-15T20:46:19.315Z,9.34
2019-01-15T20:49:10.586Z,9.36
2019-01-15T20:51:57.471Z,9.31
2019-01-15T20:54:51.538Z,9.33
2019-01-15T20:57:42.708Z,9.45
2019-01-15T21:00:29.869Z,9.52
2019-01-15T21:03:18.649Z,9.49
2019-01-15T21:06:03.956Z,9.51
2019-01-15T21:08:52.354Z,9.47
2019-01-15T21:11:39.142Z,9.48
2019-01-15T21:14:26.385Z,9.54
2019-01-15T21:17:14.718Z,9.45
2019-01-15T21:19:57.318Z,9.43
2019-01-15T21:22:44.291Z,9.44
2019-01-15T21:25:31.327Z,9.59
2019-01-15T21:28:22.710Z,9.54
2019-01-15T21:31:09.566Z,9.55
2019-01-15T21:34:05.415Z,9.56
2019-01-15T21:36:52.482Z,9.52
2019-01-15T21:39:43.684Z,9.53
2019-01-15T21:42:31.358Z,9.52
2019-01-15T21:45:17.977Z,9.54
2019-01-15T21:48:01.445Z,9.53
2019-01-15T21:51:04.899Z,9.35
2019-01-15T21:53:55.375Z,9.39
2019-01-15T21:56:58.943Z,9.46
2019-01-15T22:00:02.417Z,9.47
2019-01-15T22:02:56.685Z,9.45
2019-01-15T22:05:35.640Z,9.57
2019-01-15T22:08:24.036Z,9.64
2019-01-15T22:11:21.516Z,9.60
2019-01-15T22:14:27.973Z,9.69
2019-01-15T22:17:11.951Z,9.50
2019-01-15T22:20:02.070Z,9.50
2019-01-15T22:22:49.060Z,9.63
2019-01-15T22:25:43.143Z,9.66
2019-01-15T22:28:27.432Z,9.65
2019-01-15T22:31:21.255Z,9.75
2019-01-15T22:34:21.766Z,9.67
2019-01-15T22:37:09.930Z,9.73
2019-01-15T22:39:55.841Z,9.73
2019-01-15T22:42:50.032Z,9.73
2019-01-15T22:45:29.652Z,9.80
2019-01-15T22:48:29.966Z,9.65
2019-01-15T22:51:33.357Z,9.74
2019-01-15T22:54:39.651Z,9.73
2019-01-15T22:57:40.112Z,9.79
2019-01-15T23:00:38.078Z,9.78
2019-01-15T23:03:21.085Z,9.82
2019-01-15T23:06:22.740Z,9.74
2019-01-15T23:09:17.306Z,9.70
2019-01-15T23:11:56.552Z,9.74
2019-01-15T23:14:37.851Z,9.53
2019-01-15T23:17:24.714Z,9.61
2019-01-15T23:20:22.105Z,9.67
2019-01-15T23:23:21.941Z,9.58
2019-01-15T23:26:10.420Z,9.42
2019-01-15T23:28:58.706Z,9.60
2019-01-15T23:31:46.342Z,9.60
2019-01-15T23:34:33.352Z,9.48
2019-01-15T23:37:21.818Z,9.46
2019-01-15T23:40:16.344Z,9.58
2019-01-15T23:43:14.996Z,9.65
2019-01-15T23:46:01.973Z,9.64
2019-01-15T23:49:05.580Z,9.60
2019-01-15T23:52:00.261Z,9.54
2019-01-15T23:54:42.157Z,9.48
2019-01-15T23:57:45.689Z,9.55
